sensor_id;sensor_type;location;lat;lon;timestamp;pressure;altitude;pressure_sealevel;temperature;humidity
20628;BME280;10473;42.734;24.258;2024-01-16T00:00:18;90774.56;;;0.98;75.65
20628;BME280;10473;42.734;24.258;2024-01-16T00:02:45;90796.22;;;1.30;75.60
20628;BME280;10473;42.734;24.258;2024-01-16T00:05:11;90768.25;;;1.37;74.86
20628;BME280;10473;42.734;24.258;2024-01-16T00:07:39;90780.84;;;1.23;75.73
20628;BME280;10473;42.734;24.258;2024-01-16T00:10:07;90796.03;;;1.10;77.05
20628;BME280;10473;42.734;24.258;2024-01-16T00:12:33;90768.78;;;1.32;75.45
20628;BME280;10473;42.734;24.258;2024-01-16T00:14:59;90761.78;;;1.41;74.93
20628;BME280;10473;42.734;24.258;2024-01-16T00:17:24;90771.66;;;1.22;76.24
20628;BME280;10473;42.734;24.258;2024-01-16T00:19:50;90776.47;;;0.89;76.94
20628;BME280;10473;42.734;24.258;2024-01-16T00:22:15;90772.47;;;1.30;75.77
20628;BME280;10473;42.734;24.258;2024-01-16T00:24:41;90776.00;;;1.29;75.45
20628;BME280;10473;42.734;24.258;2024-01-16T00:27:06;90759.09;;;1.49;74.92
20628;BME280;10473;42.734;24.258;2024-01-16T00:29:32;90768.00;;;1.60;75.42
20628;BME280;10473;42.734;24.258;2024-01-16T00:31:58;90773.88;;;1.32;76.25
20628;BME280;10473;42.734;24.258;2024-01-16T00:34:23;90767.09;;;1.39;75.89
20628;BME280;10473;42.734;24.258;2024-01-16T00:36:49;90751.78;;;1.39;76.74
20628;BME280;10473;42.734;24.258;2024-01-16T00:39:15;90746.38;;;1.49;76.45
20628;BME280;10473;42.734;24.258;2024-01-16T00:41:40;90756.25;;;1.09;78.15
20628;BME280;10473;42.734;24.258;2024-01-16T00:44:06;90756.53;;;1.21;76.48
20628;BME280;10473;42.734;24.258;2024-01-16T00:46:33;90753.53;;;1.11;76.83
20628;BME280;10473;42.734;24.258;2024-01-16T00:48:58;90758.59;;;1.32;76.26
20628;BME280;10473;42.734;24.258;2024-01-16T00:51:26;90757.38;;;1.50;75.07
20628;BME280;10473;42.734;24.258;2024-01-16T00:53:52;90759.91;;;1.50;75.17
20628;BME280;10473;42.734;24.258;2024-01-16T00:56:18;90758.78;;;1.31;76.04
20628;BME280;10473;42.734;24.258;2024-01-16T00:58:43;90760.72;;;1.29;76.28
20628;BME280;10473;42.734;24.258;2024-01-16T01:01:09;90768.34;;;1.50;75.62
20628;BME280;10473;42.734;24.258;2024-01-16T01:03:35;90771.66;;;1.22;77.05
20628;BME280;10473;42.734;24.258;2024-01-16T01:06:00;90772.22;;;1.46;75.97
20628;BME280;10473;42.734;24.258;2024-01-16T01:08:26;90762.13;;;1.59;76.30
20628;BME280;10473;42.734;24.258;2024-01-16T01:10:52;90766.84;;;1.62;76.78
20628;BME280;10473;42.734;24.258;2024-01-16T01:13:17;90752.16;;;1.64;76.69
20628;BME280;10473;42.734;24.258;2024-01-16T01:15:43;90747.63;;;1.60;76.92
20628;BME280;10473;42.734;24.258;2024-01-16T01:18:09;90737.16;;;1.48;77.24
20628;BME280;10473;42.734;24.258;2024-01-16T01:20:35;90745.09;;;1.38;77.84
20628;BME280;10473;42.734;24.258;2024-01-16T01:23:00;90742.38;;;1.40;78.28
20628;BME280;10473;42.734;24.258;2024-01-16T01:25:26;90739.22;;;1.66;77.49
20628;BME280;10473;42.734;24.258;2024-01-16T01:27:52;90753.41;;;1.47;78.33
20628;BME280;10473;42.734;24.258;2024-01-16T01:30:18;90753.69;;;1.59;77.39
20628;BME280;10473;42.734;24.258;2024-01-16T01:32:44;90756.47;;;1.64;77.32
20628;BME280;10473;42.734;24.258;2024-01-16T01:35:09;90765.16;;;1.70;77.52
20628;BME280;10473;42.734;24.258;2024-01-16T01:37:37;90764.78;;;1.79;77.62
20628;BME280;10473;42.734;24.258;2024-01-16T01:40:03;90751.75;;;1.96;75.64
20628;BME280;10473;42.734;24.258;2024-01-16T01:42:29;90757.50;;;2.04;75.14
20628;BME280;10473;42.734;24.258;2024-01-16T01:44:55;90751.56;;;1.97;76.48
20628;BME280;10473;42.734;24.258;2024-01-16T01:47:20;90756.41;;;1.85;76.71
20628;BME280;10473;42.734;24.258;2024-01-16T01:49:46;90749.13;;;2.17;75.90
20628;BME280;10473;42.734;24.258;2024-01-16T01:52:13;90743.28;;;2.30;74.87
20628;BME280;10473;42.734;24.258;2024-01-16T01:54:40;90753.53;;;2.43;74.82
20628;BME280;10473;42.734;24.258;2024-01-16T01:57:07;90742.13;;;2.39;74.92
20628;BME280;10473;42.734;24.258;2024-01-16T01:59:33;90748.03;;;1.98;75.64
20628;BME280;10473;42.734;24.258;2024-01-16T02:01:59;90754.88;;;1.91;76.23
20628;BME280;10473;42.734;24.258;2024-01-16T02:04:26;90736.63;;;2.36;74.80
20628;BME280;10473;42.734;24.258;2024-01-16T02:06:53;90740.03;;;2.08;76.29
20628;BME280;10473;42.734;24.258;2024-01-16T02:09:19;90743.56;;;2.07;76.28
20628;BME280;10473;42.734;24.258;2024-01-16T02:11:45;90743.31;;;1.95;76.36
20628;BME280;10473;42.734;24.258;2024-01-16T02:14:11;90743.81;;;1.49;78.05
20628;BME280;10473;42.734;24.258;2024-01-16T02:16:39;90739.03;;;1.68;77.31
20628;BME280;10473;42.734;24.258;2024-01-16T02:19:05;90742.47;;;1.53;77.88
20628;BME280;10473;42.734;24.258;2024-01-16T02:24:01;90742.94;;;1.63;77.80
20628;BME280;10473;42.734;24.258;2024-01-16T02:26:28;90745.53;;;1.70;77.04
20628;BME280;10473;42.734;24.258;2024-01-16T02:28:53;90744.19;;;1.46;78.00
20628;BME280;10473;42.734;24.258;2024-01-16T02:31:19;90740.75;;;1.32;78.32
20628;BME280;10473;42.734;24.258;2024-01-16T02:33:44;90754.81;;;1.21;78.89
20628;BME280;10473;42.734;24.258;2024-01-16T02:36:10;90753.34;;;0.91;80.38
20628;BME280;10473;42.734;24.258;2024-01-16T02:38:35;90760.25;;;1.18;79.05
20628;BME280;10473;42.734;24.258;2024-01-16T02:41:01;90762.25;;;1.23;78.59
20628;BME280;10473;42.734;24.258;2024-01-16T02:43:27;90770.13;;;1.28;78.57
20628;BME280;10473;42.734;24.258;2024-01-16T02:45:52;90768.19;;;1.30;78.33
20628;BME280;10473;42.734;24.258;2024-01-16T02:48:18;90786.78;;;1.52;78.42
20628;BME280;10473;42.734;24.258;2024-01-16T02:50:44;90800.09;;;1.26;78.57
20628;BME280;10473;42.734;24.258;2024-01-16T02:53:10;90794.34;;;1.17;78.97
20628;BME280;10473;42.734;24.258;2024-01-16T02:55:35;90793.72;;;1.37;77.76
20628;BME280;10473;42.734;24.258;2024-01-16T02:58:01;90802.97;;;1.44;77.58
20628;BME280;10473;42.734;24.258;2024-01-16T03:00:28;90803.59;;;1.75;76.83
20628;BME280;10473;42.734;24.258;2024-01-16T03:02:54;90807.75;;;1.76;76.60
20628;BME280;10473;42.734;24.258;2024-01-16T03:05:20;90805.59;;;1.51;77.06
20628;BME280;10473;42.734;24.258;2024-01-16T03:07:45;90806.44;;;1.58;77.69
20628;BME280;10473;42.734;24.258;2024-01-16T03:10:11;90805.28;;;1.61;77.31
20628;BME280;10473;42.734;24.258;2024-01-16T03:12:37;90800.22;;;1.68;77.38
20628;BME280;10473;42.734;24.258;2024-01-16T03:15:03;90800.91;;;1.55;77.75
20628;BME280;10473;42.734;24.258;2024-01-16T03:17:29;90800.28;;;1.74;78.21
20628;BME280;10473;42.734;24.258;2024-01-16T03:19:55;90804.38;;;1.75;78.29
20628;BME280;10473;42.734;24.258;2024-01-16T03:22:20;90807.34;;;1.79;77.65
20628;BME280;10473;42.734;24.258;2024-01-16T03:24:48;90799.88;;;1.77;78.60
20628;BME280;10473;42.734;24.258;2024-01-16T03:27:13;90802.47;;;1.56;79.22
20628;BME280;10473;42.734;24.258;2024-01-16T03:29:39;90805.03;;;1.84;78.00
20628;BME280;10473;42.734;24.258;2024-01-16T03:32:05;90813.97;;;2.01;77.27
20628;BME280;10473;42.734;24.258;2024-01-16T03:34:30;90817.13;;;1.75;78.06
20628;BME280;10473;42.734;24.258;2024-01-16T03:36:57;90802.72;;;1.89;76.90
20628;BME280;10473;42.734;24.258;2024-01-16T03:39:22;90805.03;;;1.84;76.34
20628;BME280;10473;42.734;24.258;2024-01-16T03:41:48;90820.69;;;1.53;77.83
20628;BME280;10473;42.734;24.258;2024-01-16T03:44:14;90813.44;;;1.07;79.30
20628;BME280;10473;42.734;24.258;2024-01-16T03:46:39;90842.38;;;1.20;78.58
20628;BME280;10473;42.734;24.258;2024-01-16T03:49:05;90834.59;;;1.07;79.45
20628;BME280;10473;42.734;24.258;2024-01-16T03:51:30;90848.06;;;1.22;78.57
20628;BME280;10473;42.734;24.258;2024-01-16T03:53:56;90850.97;;;1.41;77.38
20628;BME280;10473;42.734;24.258;2024-01-16T03:56:22;90844.19;;;1.27;78.03
20628;BME280;10473;42.734;24.258;2024-01-16T03:58:48;90854.88;;;1.37;77.37
20628;BME280;10473;42.734;24.258;2024-01-16T04:01:14;90848.28;;;1.06;78.00
20628;BME280;10473;42.734;24.258;2024-01-16T04:03:40;90846.22;;;0.95;78.69
20628;BME280;10473;42.734;24.258;2024-01-16T04:06:18;90857.47;;;1.00;78.26
20628;BME280;10473;42.734;24.258;2024-01-16T04:08:44;90862.34;;;0.80;78.61
20628;BME280;10473;42.734;24.258;2024-01-16T04:11:14;90875.69;;;1.04;78.44
20628;BME280;10473;42.734;24.258;2024-01-16T04:13:40;90876.38;;;0.91;78.93
20628;BME280;10473;42.734;24.258;2024-01-16T04:16:06;90878.31;;;0.89;79.96
20628;BME280;10473;42.734;24.258;2024-01-16T04:18:36;90887.16;;;0.93;79.38
20628;BME280;10473;42.734;24.258;2024-01-16T04:21:05;90886.19;;;1.31;79.07
20628;BME280;10473;42.734;24.258;2024-01-16T04:23:31;90893.03;;;2.64;73.92
20628;BME280;10473;42.734;24.258;2024-01-16T04:25:58;90889.59;;;2.85;73.17
20628;BME280;10473;42.734;24.258;2024-01-16T04:28:23;90896.56;;;3.05;72.13
20628;BME280;10473;42.734;24.258;2024-01-16T04:30:49;90903.44;;;2.98;72.13
20628;BME280;10473;42.734;24.258;2024-01-16T04:33:15;90903.38;;;2.84;70.56
20628;BME280;10473;42.734;24.258;2024-01-16T04:35:40;90903.56;;;2.48;70.28
20628;BME280;10473;42.734;24.258;2024-01-16T04:38:06;90902.25;;;2.24;70.35
20628;BME280;10473;42.734;24.258;2024-01-16T04:40:33;90892.09;;;2.02;69.82
20628;BME280;10473;42.734;24.258;2024-01-16T04:42:59;90895.06;;;2.06;68.09
20628;BME280;10473;42.734;24.258;2024-01-16T04:45:25;90912.22;;;1.97;68.00
20628;BME280;10473;42.734;24.258;2024-01-16T04:47:50;90907.47;;;2.16;67.07
20628;BME280;10473;42.734;24.258;2024-01-16T04:50:16;90912.22;;;1.97;66.69
20628;BME280;10473;42.734;24.258;2024-01-16T04:52:42;90908.78;;;2.05;65.38
20628;BME280;10473;42.734;24.258;2024-01-16T04:55:08;90925.47;;;2.08;64.58
20628;BME280;10473;42.734;24.258;2024-01-16T04:57:34;90928.63;;;2.10;63.32
20628;BME280;10473;42.734;24.258;2024-01-16T05:00:00;90909.84;;;2.17;63.02
20628;BME280;10473;42.734;24.258;2024-01-16T05:02:25;90907.38;;;2.02;63.46
20628;BME280;10473;42.734;24.258;2024-01-16T05:04:51;90893.91;;;2.09;63.85
20628;BME280;10473;42.734;24.258;2024-01-16T05:07:19;90894.38;;;2.25;65.62
20628;BME280;10473;42.734;24.258;2024-01-16T05:09:46;90888.19;;;2.35;64.57
20628;BME280;10473;42.734;24.258;2024-01-16T05:12:12;90920.31;;;2.29;63.76
20628;BME280;10473;42.734;24.258;2024-01-16T05:14:38;90932.16;;;2.37;63.57
20628;BME280;10473;42.734;24.258;2024-01-16T05:17:25;90923.38;;;2.46;62.94
20628;BME280;10473;42.734;24.258;2024-01-16T05:19:50;90920.22;;;2.44;62.51
20628;BME280;10473;42.734;24.258;2024-01-16T05:22:15;90917.28;;;2.47;63.08
20628;BME280;10473;42.734;24.258;2024-01-16T05:24:41;90943.97;;;2.44;64.62
20628;BME280;10473;42.734;24.258;2024-01-16T05:27:07;90946.25;;;2.61;66.16
20628;BME280;10473;42.734;24.258;2024-01-16T05:29:34;90961.13;;;2.85;64.45
20628;BME280;10473;42.734;24.258;2024-01-16T05:32:03;90957.97;;;2.83;62.93
20628;BME280;10473;42.734;24.258;2024-01-16T05:34:29;90947.03;;;2.96;63.26
20628;BME280;10473;42.734;24.258;2024-01-16T05:36:54;90958.06;;;2.68;63.05
20628;BME280;10473;42.734;24.258;2024-01-16T05:39:20;90972.13;;;2.86;62.50
20628;BME280;10473;42.734;24.258;2024-01-16T05:41:46;90979.75;;;2.79;61.39
20628;BME280;10473;42.734;24.258;2024-01-16T05:44:12;91019.13;;;2.63;61.04
20628;BME280;10473;42.734;24.258;2024-01-16T05:46:37;91002.28;;;2.41;58.75
20628;BME280;10473;42.734;24.258;2024-01-16T05:49:03;90987.78;;;2.20;58.16
20628;BME280;10473;42.734;24.258;2024-01-16T05:51:29;91008.69;;;2.09;58.68
20628;BME280;10473;42.734;24.258;2024-01-16T05:53:55;91011.72;;;1.97;57.29
20628;BME280;10473;42.734;24.258;2024-01-16T05:56:20;91003.94;;;1.84;57.50
20628;BME280;10473;42.734;24.258;2024-01-16T05:58:46;91019.88;;;1.71;58.79
20628;BME280;10473;42.734;24.258;2024-01-16T06:01:12;91011.94;;;1.59;58.48
20628;BME280;10473;42.734;24.258;2024-01-16T06:03:40;90986.38;;;1.53;58.38
20628;BME280;10473;42.734;24.258;2024-01-16T06:06:07;90980.41;;;1.46;57.30
20628;BME280;10473;42.734;24.258;2024-01-16T06:08:33;90988.69;;;1.33;56.87
20628;BME280;10473;42.734;24.258;2024-01-16T06:10:59;90978.78;;;1.23;54.17
20628;BME280;10473;42.734;24.258;2024-01-16T06:13:25;91042.28;;;1.25;53.78
20628;BME280;10473;42.734;24.258;2024-01-16T06:15:50;91065.63;;;1.58;52.46
20628;BME280;10473;42.734;24.258;2024-01-16T06:18:16;91045.72;;;1.83;51.94
20628;BME280;10473;42.734;24.258;2024-01-16T06:20:41;91031.59;;;2.02;51.31
20628;BME280;10473;42.734;24.258;2024-01-16T06:23:07;91036.09;;;2.21;50.82
20628;BME280;10473;42.734;24.258;2024-01-16T06:25:32;91029.44;;;2.05;50.66
20628;BME280;10473;42.734;24.258;2024-01-16T06:27:58;91043.38;;;2.24;50.81
20628;BME280;10473;42.734;24.258;2024-01-16T06:30:23;91045.38;;;2.29;50.57
20628;BME280;10473;42.734;24.258;2024-01-16T06:32:49;91065.47;;;1.96;50.27
20628;BME280;10473;42.734;24.258;2024-01-16T06:35:15;91084.22;;;1.73;51.40
20628;BME280;10473;42.734;24.258;2024-01-16T06:37:42;91074.22;;;1.87;50.99
20628;BME280;10473;42.734;24.258;2024-01-16T06:40:08;91108.88;;;2.39;49.33
20628;BME280;10473;42.734;24.258;2024-01-16T06:42:34;91100.56;;;1.94;49.50
20628;BME280;10473;42.734;24.258;2024-01-16T06:45:02;91115.56;;;1.52;50.93
20628;BME280;10473;42.734;24.258;2024-01-16T06:47:27;91085.78;;;1.38;50.44
20628;BME280;10473;42.734;24.258;2024-01-16T06:49:53;91083.06;;;1.39;50.87
20628;BME280;10473;42.734;24.258;2024-01-16T06:52:19;91117.06;;;1.47;52.44
20628;BME280;10473;42.734;24.258;2024-01-16T06:54:45;91150.88;;;1.40;51.09
20628;BME280;10473;42.734;24.258;2024-01-16T06:57:11;91157.13;;;1.38;50.36
20628;BME280;10473;42.734;24.258;2024-01-16T06:59:36;91162.41;;;1.51;49.38
20628;BME280;10473;42.734;24.258;2024-01-16T07:02:02;91171.72;;;1.44;49.50
20628;BME280;10473;42.734;24.258;2024-01-16T07:04:28;91156.59;;;1.42;50.06
20628;BME280;10473;42.734;24.258;2024-01-16T07:06:54;91186.47;;;1.34;50.16
20628;BME280;10473;42.734;24.258;2024-01-16T07:09:20;91211.69;;;1.29;51.38
20628;BME280;10473;42.734;24.258;2024-01-16T07:11:47;91166.25;;;1.32;50.96
20628;BME280;10473;42.734;24.258;2024-01-16T07:14:12;91185.16;;;1.38;48.62
20628;BME280;10473;42.734;24.258;2024-01-16T07:16:38;91203.16;;;1.36;50.40
20628;BME280;10473;42.734;24.258;2024-01-16T07:19:04;91204.03;;;1.29;49.73
20628;BME280;10473;42.734;24.258;2024-01-16T07:21:29;91200.00;;;1.34;50.20
20628;BME280;10473;42.734;24.258;2024-01-16T07:23:55;91252.56;;;1.35;49.78
20628;BME280;10473;42.734;24.258;2024-01-16T07:26:22;91243.09;;;1.44;50.44
20628;BME280;10473;42.734;24.258;2024-01-16T07:28:48;91200.00;;;1.49;50.15
20628;BME280;10473;42.734;24.258;2024-01-16T07:31:14;91224.47;;;1.88;49.62
20628;BME280;10473;42.734;24.258;2024-01-16T07:33:42;91249.03;;;1.89;49.94
20628;BME280;10473;42.734;24.258;2024-01-16T07:36:08;91197.16;;;1.67;50.03
20628;BME280;10473;42.734;24.258;2024-01-16T07:38:35;91201.88;;;1.85;47.83
20628;BME280;10473;42.734;24.258;2024-01-16T07:41:01;91217.72;;;1.95;45.69
20628;BME280;10473;42.734;24.258;2024-01-16T07:43:27;91214.19;;;1.81;46.15
20628;BME280;10473;42.734;24.258;2024-01-16T07:45:55;91204.59;;;1.83;45.27
20628;BME280;10473;42.734;24.258;2024-01-16T07:48:21;91226.53;;;1.78;47.23
20628;BME280;10473;42.734;24.258;2024-01-16T07:50:48;91233.44;;;1.69;47.87
20628;BME280;10473;42.734;24.258;2024-01-16T07:53:14;91211.81;;;1.50;49.21
20628;BME280;10473;42.734;24.258;2024-01-16T07:55:43;91284.44;;;1.31;48.98
20628;BME280;10473;42.734;24.258;2024-01-16T07:58:12;91271.81;;;1.38;49.52
20628;BME280;10473;42.734;24.258;2024-01-16T08:00:38;91341.72;;;1.12;51.60
20628;BME280;10473;42.734;24.258;2024-01-16T08:03:07;91322.22;;;1.05;52.69
20628;BME280;10473;42.734;24.258;2024-01-16T08:05:33;91326.09;;;0.92;54.33
20628;BME280;10473;42.734;24.258;2024-01-16T08:07:58;91291.56;;;0.90;53.59
20628;BME280;10473;42.734;24.258;2024-01-16T08:10:24;91321.38;;;0.81;53.47
20628;BME280;10473;42.734;24.258;2024-01-16T08:12:50;91313.75;;;0.81;53.42
20628;BME280;10473;42.734;24.258;2024-01-16T08:15:15;91269.03;;;1.01;51.91
20628;BME280;10473;42.734;24.258;2024-01-16T08:17:41;91302.72;;;1.12;51.64
20628;BME280;10473;42.734;24.258;2024-01-16T08:20:09;91317.44;;;1.25;52.82
20628;BME280;10473;42.734;24.258;2024-01-16T08:22:38;91298.16;;;1.30;50.22
20628;BME280;10473;42.734;24.258;2024-01-16T08:25:04;91307.16;;;1.18;50.91
20628;BME280;10473;42.734;24.258;2024-01-16T08:27:34;91355.75;;;1.08;47.20
20628;BME280;10473;42.734;24.258;2024-01-16T08:29:59;91376.13;;;1.39;44.53
20628;BME280;10473;42.734;24.258;2024-01-16T08:32:26;91327.09;;;1.75;46.27
20628;BME280;10473;42.734;24.258;2024-01-16T08:34:52;91309.09;;;2.07;44.39
20628;BME280;10473;42.734;24.258;2024-01-16T08:37:17;91298.53;;;2.39;42.33
20628;BME280;10473;42.734;24.258;2024-01-16T08:39:43;91334.63;;;3.02;42.02
20628;BME280;10473;42.734;24.258;2024-01-16T08:42:09;91382.13;;;2.82;42.08
20628;BME280;10473;42.734;24.258;2024-01-16T08:44:40;91325.91;;;2.97;42.15
20628;BME280;10473;42.734;24.258;2024-01-16T08:47:05;91343.25;;;2.80;41.98
20628;BME280;10473;42.734;24.258;2024-01-16T08:49:32;91332.22;;;2.64;42.98
20628;BME280;10473;42.734;24.258;2024-01-16T08:51:58;91343.59;;;2.77;42.70
20628;BME280;10473;42.734;24.258;2024-01-16T08:54:24;91369.13;;;3.28;41.68
20628;BME280;10473;42.734;24.258;2024-01-16T08:56:51;91368.75;;;3.31;40.50
20628;BME280;10473;42.734;24.258;2024-01-16T08:59:17;91377.94;;;3.47;41.98
20628;BME280;10473;42.734;24.258;2024-01-16T09:01:42;91380.53;;;3.68;39.15
20628;BME280;10473;42.734;24.258;2024-01-16T09:04:08;91350.75;;;3.39;38.72
20628;BME280;10473;42.734;24.258;2024-01-16T09:06:33;91374.50;;;3.55;40.10
20628;BME280;10473;42.734;24.258;2024-01-16T09:08:59;91381.84;;;3.86;39.37
20628;BME280;10473;42.734;24.258;2024-01-16T09:11:25;91402.69;;;3.83;40.76
20628;BME280;10473;42.734;24.258;2024-01-16T09:13:50;91408.53;;;3.77;40.02
20628;BME280;10473;42.734;24.258;2024-01-16T09:16:17;91420.19;;;3.06;40.81
20628;BME280;10473;42.734;24.258;2024-01-16T09:18:42;91414.31;;;3.64;41.93
20628;BME280;10473;42.734;24.258;2024-01-16T09:21:08;91412.91;;;4.26;39.36
20628;BME280;10473;42.734;24.258;2024-01-16T09:23:33;91371.53;;;4.57;39.40
20628;BME280;10473;42.734;24.258;2024-01-16T09:25:59;91405.13;;;3.91;38.92
20628;BME280;10473;42.734;24.258;2024-01-16T09:28:25;91389.63;;;4.21;39.49
20628;BME280;10473;42.734;24.258;2024-01-16T09:30:50;91359.69;;;4.49;38.56
20628;BME280;10473;42.734;24.258;2024-01-16T09:33:16;91384.72;;;4.54;38.67
20628;BME280;10473;42.734;24.258;2024-01-16T09:35:42;91421.59;;;4.31;39.16
20628;BME280;10473;42.734;24.258;2024-01-16T09:38:07;91424.59;;;4.63;38.51
20628;BME280;10473;42.734;24.258;2024-01-16T09:40:33;91400.47;;;4.51;37.64
20628;BME280;10473;42.734;24.258;2024-01-16T09:43:01;91432.94;;;3.36;40.61
20628;BME280;10473;42.734;24.258;2024-01-16T09:45:27;91391.84;;;4.02;39.92
20628;BME280;10473;42.734;24.258;2024-01-16T09:47:55;91424.09;;;4.25;40.16
20628;BME280;10473;42.734;24.258;2024-01-16T09:50:22;91425.03;;;4.17;41.20
20628;BME280;10473;42.734;24.258;2024-01-16T09:52:48;91440.53;;;3.87;40.19
20628;BME280;10473;42.734;24.258;2024-01-16T09:55:16;91433.69;;;4.16;37.88
20628;BME280;10473;42.734;24.258;2024-01-16T09:57:45;91406.38;;;4.23;36.52
20628;BME280;10473;42.734;24.258;2024-01-16T10:00:12;91413.25;;;3.73;38.03
20628;BME280;10473;42.734;24.258;2024-01-16T10:02:39;91422.72;;;3.58;38.31
20628;BME280;10473;42.734;24.258;2024-01-16T10:05:07;91407.75;;;3.55;37.89
20628;BME280;10473;42.734;24.258;2024-01-16T10:07:35;91461.06;;;3.21;38.36
20628;BME280;10473;42.734;24.258;2024-01-16T10:10:02;91478.19;;;2.91;37.58
20628;BME280;10473;42.734;24.258;2024-01-16T10:12:28;91431.03;;;2.79;39.68
20628;BME280;10473;42.734;24.258;2024-01-16T10:14:55;91441.78;;;3.04;39.38
20628;BME280;10473;42.734;24.258;2024-01-16T10:17:21;91453.94;;;3.17;40.06
20628;BME280;10473;42.734;24.258;2024-01-16T10:19:51;91468.91;;;3.20;39.73
20628;BME280;10473;42.734;24.258;2024-01-16T10:22:24;91473.56;;;3.31;41.75
20628;BME280;10473;42.734;24.258;2024-01-16T10:25:04;91473.91;;;3.43;39.68
20628;BME280;10473;42.734;24.258;2024-01-16T10:27:30;91466.44;;;4.21;38.90
20628;BME280;10473;42.734;24.258;2024-01-16T10:29:57;91459.31;;;5.01;37.70
20628;BME280;10473;42.734;24.258;2024-01-16T10:32:37;91469.13;;;5.25;36.75
20628;BME280;10473;42.734;24.258;2024-01-16T10:35:08;91478.06;;;5.43;37.23
20628;BME280;10473;42.734;24.258;2024-01-16T10:37:47;91494.16;;;5.71;36.39
20628;BME280;10473;42.734;24.258;2024-01-16T10:40:22;91463.97;;;5.25;36.07
20628;BME280;10473;42.734;24.258;2024-01-16T10:43:04;91478.66;;;4.47;38.19
20628;BME280;10473;42.734;24.258;2024-01-16T10:45:30;91493.47;;;5.08;35.75
20628;BME280;10473;42.734;24.258;2024-01-16T10:48:04;91513.84;;;4.38;36.96
20628;BME280;10473;42.734;24.258;2024-01-16T10:50:30;91475.63;;;4.93;35.50
20628;BME280;10473;42.734;24.258;2024-01-16T10:52:59;91480.22;;;4.69;36.04
20628;BME280;10473;42.734;24.258;2024-01-16T10:55:27;91454.44;;;5.54;36.26
20628;BME280;10473;42.734;24.258;2024-01-16T10:57:56;91463.38;;;5.78;34.56
20628;BME280;10473;42.734;24.258;2024-01-16T11:00:23;91485.91;;;5.83;33.98
20628;BME280;10473;42.734;24.258;2024-01-16T11:02:59;91486.41;;;5.51;33.52
20628;BME280;10473;42.734;24.258;2024-01-16T11:05:31;91474.97;;;5.12;34.95
20628;BME280;10473;42.734;24.258;2024-01-16T11:07:58;91493.00;;;5.32;36.33
20628;BME280;10473;42.734;24.258;2024-01-16T11:10:27;91523.25;;;4.81;36.49
20628;BME280;10473;42.734;24.258;2024-01-16T11:12:54;91500.72;;;4.48;36.94
20628;BME280;10473;42.734;24.258;2024-01-16T11:15:21;91506.41;;;4.43;37.51
20628;BME280;10473;42.734;24.258;2024-01-16T11:17:47;91513.59;;;4.83;36.73
20628;BME280;10473;42.734;24.258;2024-01-16T11:20:15;91468.69;;;5.22;35.20
20628;BME280;10473;42.734;24.258;2024-01-16T11:22:43;91491.97;;;5.62;35.71
20628;BME280;10473;42.734;24.258;2024-01-16T11:25:11;91507.56;;;5.60;35.21
20628;BME280;10473;42.734;24.258;2024-01-16T11:27:38;91500.41;;;5.49;34.89
20628;BME280;10473;42.734;24.258;2024-01-16T11:30:09;91512.72;;;5.25;35.20
20628;BME280;10473;42.734;24.258;2024-01-16T11:32:39;91533.19;;;4.90;34.29
20628;BME280;10473;42.734;24.258;2024-01-16T11:35:10;91531.69;;;4.53;35.03
20628;BME280;10473;42.734;24.258;2024-01-16T11:37:41;91508.84;;;4.51;34.59
20628;BME280;10473;42.734;24.258;2024-01-16T11:42:50;91504.44;;;4.02;36.51
20628;BME280;10473;42.734;24.258;2024-01-16T11:48:12;91495.38;;;3.63;37.83
20628;BME280;10473;42.734;24.258;2024-01-16T11:50:39;91509.31;;;3.76;36.45
20628;BME280;10473;42.734;24.258;2024-01-16T11:53:05;91490.31;;;3.85;37.13
20628;BME280;10473;42.734;24.258;2024-01-16T11:55:35;91532.13;;;3.77;38.26
20628;BME280;10473;42.734;24.258;2024-01-16T12:01:12;91518.41;;;3.48;37.22
20628;BME280;10473;42.734;24.258;2024-01-16T12:03:37;91542.28;;;3.70;38.36
20628;BME280;10473;42.734;24.258;2024-01-16T12:06:03;91542.91;;;3.73;36.22
20628;BME280;10473;42.734;24.258;2024-01-16T12:08:32;91551.56;;;3.57;36.90
20628;BME280;10473;42.734;24.258;2024-01-16T12:10:57;91554.94;;;3.27;37.70
20628;BME280;10473;42.734;24.258;2024-01-16T12:13:25;91578.28;;;3.09;38.24
20628;BME280;10473;42.734;24.258;2024-01-16T12:16:00;91611.25;;;3.19;38.82
20628;BME280;10473;42.734;24.258;2024-01-16T12:18:26;91590.31;;;3.01;38.72
20628;BME280;10473;42.734;24.258;2024-01-16T12:20:52;91565.75;;;3.29;37.74
20628;BME280;10473;42.734;24.258;2024-01-16T12:23:18;91567.78;;;3.49;37.27
20628;BME280;10473;42.734;24.258;2024-01-16T12:25:46;91563.47;;;3.64;37.15
20628;BME280;10473;42.734;24.258;2024-01-16T12:28:12;91568.38;;;3.96;35.98
20628;BME280;10473;42.734;24.258;2024-01-16T12:30:49;91584.09;;;3.78;34.44
20628;BME280;10473;42.734;24.258;2024-01-16T12:33:15;91591.50;;;3.73;34.65
20628;BME280;10473;42.734;24.258;2024-01-16T12:35:45;91622.91;;;3.66;36.27
20628;BME280;10473;42.734;24.258;2024-01-16T12:38:12;91636.84;;;3.49;36.08
20628;BME280;10473;42.734;24.258;2024-01-16T12:40:47;91626.09;;;3.39;37.29
20628;BME280;10473;42.734;24.258;2024-01-16T12:43:16;91594.72;;;3.45;36.24
20628;BME280;10473;42.734;24.258;2024-01-16T12:45:43;91608.88;;;3.77;35.38
20628;BME280;10473;42.734;24.258;2024-01-16T12:48:10;91614.97;;;3.46;35.52
20628;BME280;10473;42.734;24.258;2024-01-16T12:50:36;91612.16;;;3.56;35.63
20628;BME280;10473;42.734;24.258;2024-01-16T12:55:35;91623.50;;;3.24;37.46
20628;BME280;10473;42.734;24.258;2024-01-16T12:58:17;91622.63;;;3.32;36.91
20628;BME280;10473;42.734;24.258;2024-01-16T13:00:47;91618.94;;;3.19;37.52
20628;BME280;10473;42.734;24.258;2024-01-16T13:03:26;91606.25;;;3.26;35.76
20628;BME280;10473;42.734;24.258;2024-01-16T13:05:59;91622.06;;;3.06;37.07
20628;BME280;10473;42.734;24.258;2024-01-16T13:08:26;91626.13;;;2.32;40.91
20628;BME280;10473;42.734;24.258;2024-01-16T13:11:09;91629.38;;;2.72;39.36